Terminal Aerodrome Forecast
Issued by NWS Missoula, MT

Home | Current Version | Previous Version | Text Only | Print | Product List | Glossary On
Versions: 1 2 3 4 5 6 7 8 9 10 11 12 13 14 15 16 17
620
FTUS45 KMSO 091223 AAA
TAFBTM
TAF AMD
KBTM 091223Z 0912/1012 00000KT 5SM MIFG SCT005
      TEMPO 0912/0914 1SM BR BKN005
     FM091400 00000KT 4SM MIFG FEW001
     FM091600 00000KT 6SM HZ SKC
     FM092000 VRB04KT P6SM SKC=

USA.gov is the U.S. government's official web portal to all federal, state and local government web resources and services.